Time;durP1;ratioP1;P1;durP2;ratioP2;P2;SDS_P1;SDS_P2;PMS_P1;PMS_P2;Temp;Humidity;BMP_temperature;BMP_pressure;BME280_temperature;BME280_humidity;BME280_pressure;Samples;Min_cycle;Max_cycle;Signal;HPM_P1;HPM_P2
2022/06/08 00:01:23;;;;;;;3.77;1.70;;;;;;;;;;5053510;28;20579;-84
2022/06/08 00:03:52;;;;;;;2.73;1.33;;;;;;;;;;5052811;28;20214;-84
2022/06/08 00:06:21;;;;;;;1.80;1.70;;;;;;;;;;5053807;28;20230;-84
2022/06/08 00:08:48;;;;;;;1.80;1.70;;;;;;;;;;5054210;28;20206;-84
2022/06/08 00:11:16;;;;;;;1.67;1.57;;;;;;;;;;5053641;28;20226;-84
2022/06/08 00:13:44;;;;;;;1.90;1.80;;;;;;;;;;5054325;28;20229;-84
2022/06/08 00:16:11;;;;;;;1.70;1.60;;;;;;;;;;5053445;28;20710;-84
2022/06/08 00:18:39;;;;;;;1.53;1.43;;;;;;;;;;5053711;28;20697;-84
2022/06/08 00:21:06;;;;;;;6.53;1.73;;;;;;;;;;5053680;28;20300;-84
2022/06/08 00:23:34;;;;;;;1.67;1.57;;;;;;;;;;5054151;28;20212;-84
2022/06/08 00:26:02;;;;;;;1.80;1.70;;;;;;;;;;5053294;28;20631;-84
2022/06/08 00:28:29;;;;;;;1.63;1.53;;;;;;;;;;5053751;28;20713;-84
2022/06/08 00:30:56;;;;;;;1.90;1.70;;;;;;;;;;5053272;28;20606;-84
2022/06/08 00:33:23;;;;;;;8.73;1.97;;;;;;;;;;5053521;28;20698;-84
2022/06/08 00:35:50;;;;;;;2.37;1.80;;;;;;;;;;5053528;28;20237;-84
2022/06/08 00:38:17;;;;;;;1.57;1.47;;;;;;;;;;5053449;28;20256;-84
2022/06/08 00:40:52;;;;;;;1.37;1.37;;;;;;;;;;5053185;28;20667;-84
2022/06/08 00:43:19;;;;;;;1.23;1.23;;;;;;;;;;5054902;28;20696;-83
2022/06/08 00:45:47;;;;;;;3.53;1.60;;;;;;;;;;5054149;28;20249;-84
2022/06/08 00:48:14;;;;;;;2.10;1.57;;;;;;;;;;5053517;28;20221;-84
2022/06/08 00:50:43;;;;;;;1.57;1.47;;;;;;;;;;5052999;28;20234;-84
2022/06/08 00:53:11;;;;;;;1.80;1.70;;;;;;;;;;5053611;28;20603;-84
2022/06/08 00:55:39;;;;;;;1.93;1.73;;;;;;;;;;5052941;28;20233;-84
2022/06/08 00:58:12;;;;;;;1.80;1.70;;;;;;;;;;5053272;28;20213;-84
2022/06/08 01:00:41;;;;;;;1.63;1.50;;;;;;;;;;5052546;28;20238;-84
2022/06/08 01:03:08;;;;;;;2.53;1.70;;;;;;;;;;5053072;28;20202;-84
2022/06/08 01:05:37;;;;;;;1.80;1.70;;;;;;;;;;5052408;28;20237;-83
2022/06/08 01:08:07;;;;;;;1.53;1.43;;;;;;;;;;5052028;28;20206;-84
2022/06/08 01:10:38;;;;;;;1.90;1.80;;;;;;;;;;5052967;28;20256;-83
2022/06/08 01:13:05;;;;;;;2.10;1.90;;;;;;;;;;5052792;28;20256;-83
2022/06/08 01:15:35;;;;;;;1.90;1.80;;;;;;;;;;5052097;28;20275;-83
2022/06/08 01:18:02;;;;;;;2.17;1.70;;;;;;;;;;5053311;28;20206;-83
2022/06/08 01:20:29;;;;;;;1.60;1.50;;;;;;;;;;5052319;28;20701;-83
2022/06/08 01:22:58;;;;;;;2.90;1.70;;;;;;;;;;5052916;28;20263;-83
2022/06/08 01:25:26;;;;;;;1.87;1.73;;;;;;;;;;5052492;28;20259;-83
2022/06/08 01:27:57;;;;;;;2.00;1.73;;;;;;;;;;5052678;28;20201;-83
2022/06/08 01:30:25;;;;;;;2.53;1.60;;;;;;;;;;5052283;28;20253;-83
2022/06/08 01:33:15;;;;;;;5.33;1.80;;;;;;;;;;5052984;28;20569;-83
2022/06/08 01:35:45;;;;;;;1.80;1.60;;;;;;;;;;5052131;28;20221;-83
2022/06/08 01:38:17;;;;;;;1.70;1.60;;;;;;;;;;5052924;28;20593;-83
2022/06/08 01:40:54;;;;;;;1.80;1.70;;;;;;;;;;5052008;28;20225;-83
2022/06/08 01:43:26;;;;;;;1.70;1.60;;;;;;;;;;5052817;28;20194;-83
2022/06/08 01:45:57;;;;;;;1.70;1.60;;;;;;;;;;5052186;28;20815;-83
2022/06/08 01:48:40;;;;;;;1.67;1.50;;;;;;;;;;5052768;28;20229;-83
2022/06/08 01:51:16;;;;;;;1.77;1.67;;;;;;;;;;5052056;28;20244;-83
2022/06/08 01:53:50;;;;;;;1.67;1.57;;;;;;;;;;5051847;28;20267;-83
2022/06/08 01:56:20;;;;;;;2.07;1.97;;;;;;;;;;5051965;28;20240;-83
2022/06/08 01:58:51;;;;;;;1.80;1.70;;;;;;;;;;5052320;28;20213;-83
2022/06/08 02:01:22;;;;;;;2.33;1.90;;;;;;;;;;5051952;28;20257;-83
2022/06/08 02:03:55;;;;;;;2.23;2.07;;;;;;;;;;5052206;28;20216;-83
2022/06/08 02:06:24;;;;;;;1.80;1.70;;;;;;;;;;5051812;28;20245;-83
2022/06/08 02:08:57;;;;;;;2.20;2.00;;;;;;;;;;5052079;28;20190;-83
2022/06/08 02:11:29;;;;;;;2.00;1.90;;;;;;;;;;5051819;28;20926;-83
2022/06/08 02:13:59;;;;;;;3.60;2.10;;;;;;;;;;5052331;28;20239;-83
2022/06/08 02:16:29;;;;;;;2.07;1.87;;;;;;;;;;5051470;28;20249;-83
2022/06/08 02:18:59;;;;;;;1.90;1.80;;;;;;;;;;5052105;28;20245;-83
2022/06/08 02:21:29;;;;;;;2.27;2.10;;;;;;;;;;5051528;28;20262;-83
2022/06/08 02:23:59;;;;;;;1.90;1.80;;;;;;;;;;5052538;28;20202;-83
2022/06/08 02:26:29;;;;;;;2.13;1.90;;;;;;;;;;5051728;28;20264;-83
2022/06/08 02:28:59;;;;;;;2.00;1.90;;;;;;;;;;5056220;28;20229;-83
2022/06/08 02:31:27;;;;;;;1.97;1.87;;;;;;;;;;5055518;28;20229;-83
2022/06/08 02:36:44;;;;;;;2.43;2.23;;;;;;;;;;5056803;28;20225;-83
2022/06/08 02:39:14;;;;;;;2.27;2.07;;;;;;;;;;5056553;28;20599;-83
2022/06/08 02:41:42;;;;;;;2.00;1.90;;;;;;;;;;5043740;28;20682;-83
2022/06/08 02:44:12;;;;;;;2.73;1.93;;;;;;;;;;5055805;28;20325;-83
2022/06/08 02:46:43;;;;;;;2.13;2.00;;;;;;;;;;5035264;28;20619;-83
2022/06/08 02:49:10;;;;;;;1.90;1.80;;;;;;;;;;5041758;28;20713;-83
2022/06/08 02:51:38;;;;;;;3.37;2.10;;;;;;;;;;5055087;28;20234;-82
2022/06/08 02:54:06;;;;;;;1.80;1.70;;;;;;;;;;5055525;28;20214;-82
2022/06/08 02:56:40;;;;;;;2.00;1.90;;;;;;;;;;5055090;28;20327;-83
2022/06/08 02:59:09;;;;;;;1.93;1.83;;;;;;;;;;5055191;28;20387;-83
2022/06/08 03:01:37;;;;;;;2.00;1.90;;;;;;;;;;5055097;28;20233;-82
2022/06/08 03:04:07;;;;;;;1.77;1.67;;;;;;;;;;5055829;28;20214;-83
2022/06/08 03:06:37;;;;;;;1.60;1.50;;;;;;;;;;5055087;28;20237;-83
2022/06/08 03:09:06;;;;;;;1.90;1.80;;;;;;;;;;5055352;28;20284;-83
2022/06/08 03:11:37;;;;;;;2.30;2.10;;;;;;;;;;5054812;28;20226;-83
2022/06/08 03:14:07;;;;;;;3.13;1.80;;;;;;;;;;5055230;28;20204;-82
2022/06/08 03:16:35;;;;;;;2.23;2.03;;;;;;;;;;5054800;28;20604;-83
2022/06/08 03:19:02;;;;;;;2.90;2.20;;;;;;;;;;5055047;28;20783;-83
2022/06/08 03:21:30;;;;;;;2.13;1.93;;;;;;;;;;5054551;28;20241;-82
2022/06/08 03:23:57;;;;;;;2.07;1.87;;;;;;;;;;5054957;28;20206;-83
2022/06/08 03:26:25;;;;;;;2.00;1.90;;;;;;;;;;5054717;28;20233;-83
2022/06/08 03:28:53;;;;;;;2.37;2.17;;;;;;;;;;5055024;28;20206;-83
2022/06/08 03:31:21;;;;;;;2.17;2.00;;;;;;;;;;5055759;28;20804;-82
2022/06/08 03:33:48;;;;;;;2.00;1.90;;;;;;;;;;5039606;28;20202;-82
2022/06/08 03:36:15;;;;;;;2.10;2.00;;;;;;;;;;5055611;28;20590;-83
2022/06/08 03:38:43;;;;;;;2.33;2.13;;;;;;;;;;5055568;28;20194;-82
2022/06/08 03:41:10;;;;;;;2.30;2.10;;;;;;;;;;5054927;28;20324;-82
2022/06/08 03:43:37;;;;;;;2.40;2.20;;;;;;;;;;5057134;28;20233;-82
2022/06/08 03:46:06;;;;;;;1.77;1.67;;;;;;;;;;5055928;28;20226;-83
2022/06/08 03:48:34;;;;;;;2.00;1.90;;;;;;;;;;5055529;28;20671;-82
2022/06/08 03:51:02;;;;;;;2.00;1.80;;;;;;;;;;5055367;28;20609;-83
2022/06/08 03:53:31;;;;;;;1.83;1.73;;;;;;;;;;5054140;28;20206;-83
2022/06/08 03:55:58;;;;;;;1.93;1.83;;;;;;;;;;5054281;28;20232;-83
2022/06/08 03:58:26;;;;;;;1.70;1.60;;;;;;;;;;5054893;28;20209;-83
2022/06/08 04:00:54;;;;;;;2.43;2.03;;;;;;;;;;5053963;28;20234;-83
2022/06/08 04:03:21;;;;;;;2.67;2.20;;;;;;;;;;5054471;28;20206;-83
2022/06/08 04:05:49;;;;;;;2.00;1.90;;;;;;;;;;5054162;28;20619;-83
2022/06/08 04:08:17;;;;;;;2.30;2.10;;;;;;;;;;5054988;28;20571;-82
2022/06/08 04:10:44;;;;;;;1.70;1.60;;;;;;;;;;5054013;28;20241;-83
2022/06/08 04:13:11;;;;;;;1.90;1.80;;;;;;;;;;5054962;28;20210;-83
2022/06/08 04:15:43;;;;;;;2.80;1.93;;;;;;;;;;5057758;28;20242;-82
2022/06/08 04:18:11;;;;;;;2.27;2.13;;;;;;;;;;5061745;28;20206;-82
2022/06/08 04:20:39;;;;;;;2.07;1.87;;;;;;;;;;5061924;28;20325;-82
2022/06/08 04:23:07;;;;;;;2.10;2.00;;;;;;;;;;5062765;28;20212;-82
2022/06/08 04:25:35;;;;;;;1.93;1.83;;;;;;;;;;5060981;28;20736;-82
2022/06/08 04:28:02;;;;;;;2.27;1.90;;;;;;;;;;5062112;28;20213;-82
2022/06/08 04:30:29;;;;;;;2.10;1.90;;;;;;;;;;5061147;28;20256;-82
2022/06/08 04:32:56;;;;;;;1.87;1.77;;;;;;;;;;5061020;28;20929;-82
2022/06/08 04:35:25;;;;;;;1.93;1.67;;;;;;;;;;5061044;28;20236;-82
2022/06/08 04:37:52;;;;;;;4.40;2.03;;;;;;;;;;5065952;28;20211;-82
2022/06/08 04:40:21;;;;;;;1.80;1.70;;;;;;;;;;5065264;28;20234;-82
2022/06/08 04:42:48;;;;;;;2.47;1.53;;;;;;;;;;5064463;28;20202;-82
2022/06/08 04:45:16;;;;;;;2.03;1.80;;;;;;;;;;5063535;28;20241;-82
2022/06/08 04:47:43;;;;;;;2.03;1.93;;;;;;;;;;5063620;28;20206;-81
2022/06/08 04:50:10;;;;;;;1.70;1.60;;;;;;;;;;5065154;28;20234;-81
2022/06/08 04:52:38;;;;;;;2.00;1.90;;;;;;;;;;5063871;28;20233;-82
2022/06/08 04:55:06;;;;;;;1.77;1.67;;;;;;;;;;5062949;28;20237;-82
2022/06/08 04:57:37;;;;;;;1.90;1.80;;;;;;;;;;5063287;28;20206;-81
2022/06/08 05:00:04;;;;;;;3.07;1.70;;;;;;;;;;5063104;28;20245;-81
2022/06/08 05:02:44;;;;;;;1.87;1.77;;;;;;;;;;5078072;28;20213;-81
2022/06/08 05:05:11;;;;;;;2.93;1.80;;;;;;;;;;5083736;28;20734;-82
2022/06/08 05:07:38;;;;;;;1.70;1.60;;;;;;;;;;5068886;28;20662;-81
2022/06/08 05:10:06;;;;;;;3.90;2.10;;;;;;;;;;5055071;28;20230;-81
2022/06/08 05:12:36;;;;;;;1.70;1.60;;;;;;;;;;5051314;28;20205;-82
2022/06/08 05:15:05;;;;;;;1.90;1.80;;;;;;;;;;5055779;28;20229;-82
2022/06/08 05:17:32;;;;;;;3.00;1.57;;;;;;;;;;5057122;28;20230;-81
2022/06/08 05:19:59;;;;;;;1.97;1.87;;;;;;;;;;5056814;28;20230;-81
2022/06/08 05:22:27;;;;;;;1.80;1.70;;;;;;;;;;5057485;28;20230;-82
2022/06/08 05:24:54;;;;;;;1.67;1.57;;;;;;;;;;5055558;28;20287;-82
2022/06/08 05:27:21;;;;;;;2.70;2.17;;;;;;;;;;5055428;28;20260;-83
2022/06/08 05:29:49;;;;;;;1.90;1.80;;;;;;;;;;5054094;28;20237;-82
2022/06/08 05:32:16;;;;;;;1.73;1.63;;;;;;;;;;5054653;28;20588;-83
2022/06/08 05:34:45;;;;;;;4.43;1.70;;;;;;;;;;5053247;28;20234;-82
2022/06/08 05:37:12;;;;;;;1.90;1.80;;;;;;;;;;5054868;28;20214;-83
2022/06/08 05:39:41;;;;;;;2.67;1.87;;;;;;;;;;5053625;28;20698;-82
2022/06/08 05:42:09;;;;;;;1.70;1.60;;;;;;;;;;5053992;28;20309;-82
2022/06/08 05:44:36;;;;;;;1.60;1.50;;;;;;;;;;5052429;28;20845;-83
2022/06/08 05:47:05;;;;;;;1.70;1.60;;;;;;;;;;5053529;28;20304;-83
2022/06/08 05:49:34;;;;;;;1.60;1.50;;;;;;;;;;5052972;28;20218;-83
2022/06/08 05:52:02;;;;;;;1.83;1.50;;;;;;;;;;5054040;28;20213;-83
2022/06/08 05:54:30;;;;;;;2.33;1.50;;;;;;;;;;5053220;28;20256;-83
2022/06/08 05:56:57;;;;;;;1.53;1.43;;;;;;;;;;5053935;28;20209;-83
2022/06/08 05:59:24;;;;;;;1.40;1.30;;;;;;;;;;5052929;28;20230;-83
2022/06/08 06:01:51;;;;;;;1.50;1.40;;;;;;;;;;5059856;28;20271;-84
2022/06/08 06:04:20;;;;;;;1.40;1.30;;;;;;;;;;5071299;28;20251;-83
2022/06/08 06:06:48;;;;;;;2.23;1.30;;;;;;;;;;5074183;28;20193;-81
2022/06/08 06:09:15;;;;;;;1.50;1.40;;;;;;;;;;5076960;28;20779;-85
2022/06/08 06:11:42;;;;;;;1.70;1.50;;;;;;;;;;5052318;28;20229;-80
2022/06/08 06:14:09;;;;;;;1.37;1.20;;;;;;;;;;5033223;28;20202;-80
2022/06/08 06:16:37;;;;;;;1.03;1.03;;;;;;;;;;5032240;28;20613;-80
2022/06/08 06:19:04;;;;;;;1.43;1.33;;;;;;;;;;5032735;28;20226;-80
2022/06/08 06:21:33;;;;;;;1.30;1.30;;;;;;;;;;5033135;28;20273;-81
2022/06/08 06:24:01;;;;;;;1.60;1.50;;;;;;;;;;5032842;28;20217;-79
2022/06/08 06:26:29;;;;;;;1.80;1.30;;;;;;;;;;5032279;28;20604;-80
2022/06/08 06:28:56;;;;;;;1.30;1.20;;;;;;;;;;5033439;28;20233;-80
2022/06/08 06:31:25;;;;;;;3.57;1.20;;;;;;;;;;5032708;28;20284;-79
2022/06/08 06:33:52;;;;;;;1.80;1.30;;;;;;;;;;5032897;28;20199;-80
2022/06/08 06:36:19;;;;;;;6.27;1.57;;;;;;;;;;5032709;28;20238;-79
2022/06/08 06:38:48;;;;;;;1.53;1.20;;;;;;;;;;5040375;28;20222;-82
2022/06/08 06:41:15;;;;;;;4.38;1.48;;;;;;;;;;5055935;28;20253;-86
2022/06/08 06:43:42;;;;;;;2.20;1.00;;;;;;;;;;5050884;28;20237;-81
2022/06/08 06:46:10;;;;;;;1.33;1.23;;;;;;;;;;5037127;28;20230;-80
2022/06/08 06:48:38;;;;;;;1.30;1.30;;;;;;;;;;5034958;28;20198;-81
2022/06/08 06:51:05;;;;;;;1.50;1.40;;;;;;;;;;5032529;28;20649;-80
2022/06/08 06:53:32;;;;;;;2.30;1.40;;;;;;;;;;5034082;28;20682;-82
2022/06/08 06:56:01;;;;;;;1.50;1.25;;;;;;;;;;5033973;28;20257;-80
2022/06/08 06:58:28;;;;;;;1.70;1.00;;;;;;;;;;5034302;28;20211;-80
2022/06/08 07:00:55;;;;;;;1.25;1.17;;;;;;;;;;5031893;28;20238;-82
2022/06/08 07:03:22;;;;;;;1.40;1.00;;;;;;;;;;5033107;28;20217;-80
2022/06/08 07:05:50;;;;;;;2.53;1.55;;;;;;;;;;5033369;28;20284;-81
2022/06/08 07:08:18;;;;;;;1.30;1.10;;;;;;;;;;5032603;28;20211;-79
2022/06/08 07:11:32;;;;;;;3.28;1.60;;;;;;;;;;5031836;28;20241;-79
2022/06/08 07:13:33;;;;;;;1.42;1.33;;;;;;;;;;5033534;28;20272;-80
2022/06/08 07:16:00;;;;;;;1.40;1.20;;;;;;;;;;5036047;28;20773;-79
2022/06/08 07:18:27;;;;;;;3.40;1.20;;;;;;;;;;5036987;28;20241;-81
2022/06/08 07:20:55;;;;;;;1.05;1.05;;;;;;;;;;5034884;28;20242;-80
2022/06/08 07:23:22;;;;;;;1.05;0.98;;;;;;;;;;5035988;28;20244;-80
2022/06/08 07:25:49;;;;;;;2.30;1.73;;;;;;;;;;5036703;28;20676;-80
2022/06/08 07:28:16;;;;;;;0.80;0.80;;;;;;;;;;5037515;28;20260;-79
2022/06/08 07:30:45;;;;;;;1.40;1.10;;;;;;;;;;5038837;28;20239;-79
2022/06/08 07:33:12;;;;;;;1.92;1.10;;;;;;;;;;5038849;28;20206;-80
2022/06/08 07:35:39;;;;;;;1.20;1.10;;;;;;;;;;5038211;28;20575;-79
2022/06/08 07:38:07;;;;;;;1.20;1.10;;;;;;;;;;5040014;28;20210;-80
2022/06/08 07:40:34;;;;;;;3.03;1.20;;;;;;;;;;5037550;28;20617;-81
2022/06/08 07:43:01;;;;;;;1.00;1.00;;;;;;;;;;5037015;28;20218;-81
2022/06/08 07:45:29;;;;;;;2.13;1.05;;;;;;;;;;5038984;28;20272;-82
2022/06/08 07:50:45;;;;;;;2.08;1.10;;;;;;;;;;5037155;28;20606;-81
2022/06/08 07:53:12;;;;;;;2.67;1.30;;;;;;;;;;5052793;28;20206;-81
2022/06/08 07:55:39;;;;;;;1.27;1.02;;;;;;;;;;5058202;28;20233;-81
2022/06/08 07:58:07;;;;;;;1.00;0.93;;;;;;;;;;5053394;28;20202;-81
2022/06/08 08:00:34;;;;;;;0.95;0.95;;;;;;;;;;5058181;28;20234;-81
2022/06/08 08:03:03;;;;;;;1.23;0.77;;;;;;;;;;5053779;28;20203;-81
2022/06/08 08:05:30;;;;;;;1.52;0.77;;;;;;;;;;5057270;28;20225;-81
2022/06/08 08:07:57;;;;;;;0.80;0.80;;;;;;;;;;5056145;28;20213;-81
2022/06/08 08:10:26;;;;;;;1.13;0.93;;;;;;;;;;5054803;28;20308;-81
2022/06/08 08:12:55;;;;;;;1.90;0.90;;;;;;;;;;5054501;28;20221;-81
2022/06/08 08:15:22;;;;;;;1.20;0.80;;;;;;;;;;5055219;28;20717;-81
2022/06/08 08:17:49;;;;;;;1.23;0.75;;;;;;;;;;5054813;28;20267;-82
2022/06/08 08:20:18;;;;;;;1.48;0.60;;;;;;;;;;5055276;28;20694;-82
2022/06/08 08:22:46;;;;;;;0.70;0.70;;;;;;;;;;5054797;28;20721;-83
2022/06/08 08:25:15;;;;;;;0.98;0.80;;;;;;;;;;5053841;28;20265;-82
2022/06/08 08:27:42;;;;;;;2.13;0.95;;;;;;;;;;5054948;28;20202;-87
2022/06/08 08:30:11;;;;;;;1.02;0.65;;;;;;;;;;5054378;28;20257;-84
2022/06/08 08:32:38;;;;;;;0.85;0.60;;;;;;;;;;5054761;28;20637;-85
2022/06/08 08:35:05;;;;;;;2.42;0.85;;;;;;;;;;5054798;28;20238;-87
2022/06/08 08:37:33;;;;;;;1.63;0.70;;;;;;;;;;5065093;28;20190;-83
2022/06/08 08:40:01;;;;;;;0.82;0.82;;;;;;;;;;5076486;28;20248;-84
2022/06/08 08:42:28;;;;;;;2.03;1.00;;;;;;;;;;5067159;28;20226;-83
2022/06/08 08:44:57;;;;;;;0.80;0.80;;;;;;;;;;5058779;28;20233;-88
2022/06/08 08:47:28;;;;;;;1.33;0.80;;;;;;;;;;5054904;28;20738;-88
2022/06/08 08:49:57;;;;;;;0.88;0.85;;;;;;;;;;5053682;28;20253;-88
2022/06/08 08:52:31;;;;;;;1.90;1.00;;;;;;;;;;5054479;28;20187;-87
2022/06/08 08:55:03;;;;;;;2.08;1.60;;;;;;;;;;5048813;28;20751;-87
2022/06/08 08:57:32;;;;;;;1.05;0.82;;;;;;;;;;5063360;28;20217;-84
2022/06/08 08:59:59;;;;;;;1.08;0.88;;;;;;;;;;5053149;28;20233;-88
2022/06/08 09:05:13;;;;;;;1.33;1.02;;;;;;;;;;5053305;28;20600;-86
2022/06/08 09:07:40;;;;;;;1.52;1.00;;;;;;;;;;5054079;28;20209;-87
2022/06/08 09:10:11;;;;;;;2.35;0.95;;;;;;;;;;5052527;28;20241;-86
2022/06/08 09:12:39;;;;;;;0.63;0.63;;;;;;;;;;5053539;28;20186;-87
2022/06/08 09:15:08;;;;;;;0.65;0.65;;;;;;;;;;5052720;28;20234;-85
2022/06/08 09:17:37;;;;;;;1.98;0.95;;;;;;;;;;5053140;28;20260;-86
2022/06/08 09:20:05;;;;;;;1.08;0.75;;;;;;;;;;5053132;28;20341;-84
2022/06/08 09:22:32;;;;;;;1.52;0.80;;;;;;;;;;5053804;28;20268;-84
2022/06/08 09:25:01;;;;;;;0.50;0.50;;;;;;;;;;5052440;28;20234;-86
2022/06/08 09:27:33;;;;;;;1.40;0.60;;;;;;;;;;5053662;28;20278;-84
2022/06/08 09:30:19;;;;;;;0.60;0.38;;;;;;;;;;5052960;28;20237;-84
2022/06/08 09:32:49;;;;;;;0.65;0.52;;;;;;;;;;5054204;28;20205;-84
2022/06/08 09:35:24;;;;;;;0.43;0.43;;;;;;;;;;5052857;28;20234;-84
2022/06/08 09:37:52;;;;;;;1.92;1.00;;;;;;;;;;5053314;28;20198;-85
2022/06/08 09:43:10;;;;;;;2.58;0.70;;;;;;;;;;5072383;28;20228;-85
2022/06/08 09:45:44;;;;;;;0.70;0.70;;;;;;;;;;5072564;28;20259;-86
2022/06/08 09:51:27;;;;;;;1.13;1.02;;;;;;;;;;5071366;28;20239;-85
2022/06/08 09:53:59;;;;;;;0.98;0.45;;;;;;;;;;5070437;28;20269;-87
2022/06/08 09:56:29;;;;;;;0.45;0.45;;;;;;;;;;5065838;28;20229;-85
2022/06/08 09:59:01;;;;;;;1.27;0.50;;;;;;;;;;5054186;28;20234;-86
2022/06/08 10:01:31;;;;;;;0.57;0.52;;;;;;;;;;5052120;28;20287;-85
2022/06/08 10:04:04;;;;;;;3.00;0.63;;;;;;;;;;5052447;28;20213;-85
2022/06/08 10:06:36;;;;;;;1.00;0.50;;;;;;;;;;5052063;28;20233;-84
2022/06/08 10:09:09;;;;;;;0.63;0.63;;;;;;;;;;5052263;28;20246;-85
2022/06/08 10:11:39;;;;;;;1.95;0.55;;;;;;;;;;5053435;28;20222;-82
2022/06/08 10:14:13;;;;;;;0.60;0.60;;;;;;;;;;5053413;28;20191;-82
2022/06/08 10:16:43;;;;;;;1.75;0.63;;;;;;;;;;5052842;28;20229;-82
2022/06/08 10:19:11;;;;;;;1.70;0.77;;;;;;;;;;5046298;28;20221;-83
2022/06/08 10:21:41;;;;;;;0.50;0.50;;;;;;;;;;5053452;28;20234;-82
2022/06/08 10:24:12;;;;;;;1.10;0.98;;;;;;;;;;5053795;28;20209;-83
2022/06/08 10:26:43;;;;;;;0.82;0.77;;;;;;;;;;5053872;28;20240;-81
2022/06/08 10:29:14;;;;;;;1.48;0.80;;;;;;;;;;5054722;28;20230;-83
2022/06/08 10:31:44;;;;;;;1.75;0.73;;;;;;;;;;5055496;28;20752;-82
2022/06/08 10:34:15;;;;;;;0.75;0.25;;;;;;;;;;5055605;28;20206;-81
2022/06/08 10:36:44;;;;;;;0.52;0.47;;;;;;;;;;5053010;28;20304;-84
2022/06/08 10:39:13;;;;;;;0.40;0.40;;;;;;;;;;5053034;28;20233;-83
2022/06/08 10:44:48;;;;;;;1.77;0.60;;;;;;;;;;5054491;28;20684;-82
2022/06/08 10:47:27;;;;;;;0.77;0.32;;;;;;;;;;5055043;28;20255;-82
2022/06/08 10:49:55;;;;;;;0.98;0.68;;;;;;;;;;5057203;28;20291;-84
2022/06/08 10:52:31;;;;;;;2.10;0.80;;;;;;;;;;5059837;28;20206;-82
2022/06/08 10:55:28;;;;;;;0.88;0.70;;;;;;;;;;5057776;28;20229;-85
2022/06/08 10:58:06;;;;;;;0.82;0.40;;;;;;;;;;5056592;28;20206;-83
2022/06/08 11:00:58;;;;;;;1.08;0.40;;;;;;;;;;5055287;28;20287;-85
2022/06/08 11:03:44;;;;;;;0.40;0.40;;;;;;;;;;5055402;28;20214;-84
2022/06/08 11:06:32;;;;;;;0.93;0.52;;;;;;;;;;5056322;28;20614;-83
2022/06/08 11:09:03;;;;;;;1.55;0.60;;;;;;;;;;5056458;28;20608;-85
2022/06/08 11:11:41;;;;;;;1.23;0.63;;;;;;;;;;5054515;28;20238;-82
2022/06/08 11:14:36;;;;;;;1.10;0.52;;;;;;;;;;5054409;28;20209;-83
2022/06/08 11:17:07;;;;;;;0.50;0.50;;;;;;;;;;5024138;28;20249;-85
2022/06/08 11:19:35;;;;;;;1.63;0.77;;;;;;;;;;5053993;28;20233;-81
2022/06/08 11:22:07;;;;;;;1.23;0.65;;;;;;;;;;5056861;28;20313;-81
2022/06/08 11:24:39;;;;;;;0.60;0.60;;;;;;;;;;5033482;28;20210;-81
2022/06/08 11:27:30;;;;;;;0.73;0.68;;;;;;;;;;5059535;28;20206;-81
2022/06/08 11:29:58;;;;;;;1.25;0.70;;;;;;;;;;5045968;28;20269;-81
2022/06/08 11:32:39;;;;;;;0.82;0.55;;;;;;;;;;5057166;28;20257;-81
2022/06/08 11:35:20;;;;;;;1.08;0.70;;;;;;;;;;5057902;28;20234;-81
2022/06/08 11:37:54;;;;;;;2.10;0.55;;;;;;;;;;5057258;28;20229;-81
2022/06/08 11:40:27;;;;;;;1.10;0.60;;;;;;;;;;5058360;28;20237;-81
2022/06/08 11:42:55;;;;;;;2.28;0.60;;;;;;;;;;5058082;28;20321;-82
2022/06/08 11:45:24;;;;;;;0.75;0.60;;;;;;;;;;5057094;28;20225;-81
2022/06/08 11:47:54;;;;;;;0.50;0.50;;;;;;;;;;5057165;28;20210;-81
2022/06/08 11:50:23;;;;;;;0.75;0.47;;;;;;;;;;5056607;28;20238;-81
2022/06/08 11:52:58;;;;;;;1.02;0.50;;;;;;;;;;5056935;28;20237;-83
2022/06/08 11:55:27;;;;;;;0.50;0.50;;;;;;;;;;5057225;28;20229;-82
2022/06/08 11:57:56;;;;;;;0.43;0.40;;;;;;;;;;5057306;28;20263;-81
2022/06/08 12:00:31;;;;;;;0.50;0.50;;;;;;;;;;5056579;28;20241;-83
2022/06/08 12:03:00;;;;;;;1.30;0.60;;;;;;;;;;5055217;28;20295;-83
2022/06/08 12:05:31;;;;;;;1.23;0.60;;;;;;;;;;5056682;28;20234;-81
2022/06/08 12:08:11;;;;;;;1.25;0.75;;;;;;;;;;5057732;28;20229;-82
2022/06/08 12:10:39;;;;;;;1.75;0.63;;;;;;;;;;5053171;28;20230;-82
2022/06/08 12:13:15;;;;;;;3.20;0.80;;;;;;;;;;5057472;28;20198;-82
2022/06/08 12:15:45;;;;;;;0.50;0.43;;;;;;;;;;5057276;28;20656;-82
2022/06/08 12:18:31;;;;;;;0.80;0.60;;;;;;;;;;5055242;28;20753;-82
2022/06/08 12:21:03;;;;;;;0.68;0.60;;;;;;;;;;5056343;28;20256;-81
2022/06/08 12:23:37;;;;;;;0.90;0.52;;;;;;;;;;5057238;28;20236;-81
2022/06/08 12:26:06;;;;;;;0.60;0.60;;;;;;;;;;5057978;28;20641;-82
2022/06/08 12:28:39;;;;;;;2.75;0.60;;;;;;;;;;5058872;28;20210;-81
2022/06/08 12:31:08;;;;;;;1.58;0.73;;;;;;;;;;5057909;28;20265;-81
2022/06/08 12:33:35;;;;;;;0.52;0.52;;;;;;;;;;5057796;28;20197;-82
2022/06/08 12:36:08;;;;;;;0.50;0.50;;;;;;;;;;5057750;28;20242;-82
2022/06/08 12:38:37;;;;;;;1.33;0.68;;;;;;;;;;5054851;28;20568;-82
2022/06/08 12:41:08;;;;;;;0.65;0.65;;;;;;;;;;5056679;28;20234;-81
2022/06/08 12:43:37;;;;;;;0.55;0.50;;;;;;;;;;5056712;28;20747;-82
2022/06/08 12:46:10;;;;;;;0.85;0.50;;;;;;;;;;5056295;28;20238;-81
2022/06/08 12:48:46;;;;;;;0.90;0.60;;;;;;;;;;5056339;28;20202;-81
2022/06/08 12:51:23;;;;;;;0.80;0.45;;;;;;;;;;5055353;28;20257;-80
2022/06/08 12:53:50;;;;;;;1.70;0.50;;;;;;;;;;5049554;28;20199;-80
2022/06/08 12:56:22;;;;;;;0.85;0.73;;;;;;;;;;5055468;28;20222;-81
2022/06/08 12:58:50;;;;;;;1.52;0.60;;;;;;;;;;5054732;28;20700;-80
2022/06/08 13:01:17;;;;;;;0.75;0.55;;;;;;;;;;5059842;28;20221;-80
2022/06/08 13:03:45;;;;;;;0.95;0.60;;;;;;;;;;5075028;28;20229;-80
2022/06/08 13:06:12;;;;;;;0.68;0.55;;;;;;;;;;5059943;28;20226;-80
2022/06/08 13:08:39;;;;;;;0.63;0.63;;;;;;;;;;5054662;28;20202;-80
2022/06/08 13:11:07;;;;;;;1.25;0.57;;;;;;;;;;5054652;28;20276;-80
2022/06/08 13:13:37;;;;;;;0.70;0.70;;;;;;;;;;5055283;28;20282;-80
2022/06/08 13:16:05;;;;;;;0.50;0.50;;;;;;;;;;5055140;28;20728;-80
2022/06/08 13:18:32;;;;;;;1.95;0.90;;;;;;;;;;5054753;28;20202;-80
2022/06/08 13:20:59;;;;;;;1.95;0.65;;;;;;;;;;5054976;28;20880;-80
2022/06/08 13:23:27;;;;;;;1.45;0.75;;;;;;;;;;5054995;28;20228;-80
2022/06/08 13:25:56;;;;;;;0.75;0.73;;;;;;;;;;5050227;28;20233;-80
2022/06/08 13:28:24;;;;;;;1.10;0.90;;;;;;;;;;5052724;28;20263;-80
2022/06/08 13:30:54;;;;;;;0.82;0.80;;;;;;;;;;5054666;28;20238;-80
2022/06/08 13:36:22;;;;;;;0.88;0.70;;;;;;;;;;5055250;28;20291;-80
2022/06/08 13:38:50;;;;;;;1.60;0.43;;;;;;;;;;5054225;28;20206;-80
2022/06/08 13:41:17;;;;;;;2.92;0.50;;;;;;;;;;5054190;28;20667;-80
2022/06/08 13:43:45;;;;;;;0.95;0.50;;;;;;;;;;5056253;28;20312;-80
2022/06/08 13:46:19;;;;;;;0.52;0.52;;;;;;;;;;5058461;28;20230;-80
2022/06/08 13:48:46;;;;;;;0.70;0.70;;;;;;;;;;5055705;28;20214;-80
2022/06/08 13:51:13;;;;;;;1.38;0.93;;;;;;;;;;5057407;28;20233;-80
2022/06/08 13:53:40;;;;;;;0.80;0.77;;;;;;;;;;5057620;28;20685;-80
2022/06/08 13:56:08;;;;;;;2.67;0.73;;;;;;;;;;5059583;28;20732;-80
2022/06/08 13:58:35;;;;;;;0.60;0.60;;;;;;;;;;5059722;28;20205;-81
2022/06/08 14:01:03;;;;;;;0.73;0.73;;;;;;;;;;5059913;28;20230;-80
2022/06/08 14:03:33;;;;;;;0.57;0.50;;;;;;;;;;5058940;28;20233;-80
2022/06/08 14:14:21;;;;;;;0.65;0.65;;;;;;;;;;5059188;28;20625;-83
2022/06/08 14:16:49;;;;;;;2.03;0.73;;;;;;;;;;5052635;28;20202;-83
2022/06/08 14:19:19;;;;;;;1.08;0.90;;;;;;;;;;5059673;28;20670;-81
2022/06/08 14:21:49;;;;;;;0.50;0.45;;;;;;;;;;5056811;28;20233;-82
2022/06/08 14:24:18;;;;;;;0.60;0.60;;;;;;;;;;5058024;28;20339;-82
2022/06/08 14:26:45;;;;;;;0.80;0.80;;;;;;;;;;5062842;28;20230;-80
2022/06/08 14:29:14;;;;;;;1.10;0.80;;;;;;;;;;5065845;28;20231;-82
2022/06/08 14:31:43;;;;;;;0.60;0.57;;;;;;;;;;5070873;28;20232;-83
2022/06/08 14:34:15;;;;;;;1.88;1.15;;;;;;;;;;5057185;28;20205;-83
2022/06/08 14:36:45;;;;;;;3.20;0.88;;;;;;;;;;5057422;28;20221;-81
2022/06/08 14:39:13;;;;;;;0.50;0.50;;;;;;;;;;5052963;28;20241;-83
2022/06/08 14:41:40;;;;;;;2.92;0.98;;;;;;;;;;5060249;28;20241;-82
2022/06/08 14:44:07;;;;;;;0.75;0.47;;;;;;;;;;5059968;28;20236;-83
2022/06/08 14:46:35;;;;;;;0.82;0.70;;;;;;;;;;5057965;28;20575;-82
2022/06/08 14:49:02;;;;;;;0.73;0.50;;;;;;;;;;5061202;28;20287;-82
2022/06/08 14:51:29;;;;;;;1.17;0.80;;;;;;;;;;5065583;28;20218;-83
2022/06/08 14:53:58;;;;;;;2.28;0.57;;;;;;;;;;5057329;28;20198;-83
2022/06/08 14:56:25;;;;;;;3.40;0.90;;;;;;;;;;5060803;28;20226;-81
2022/06/08 14:58:54;;;;;;;0.90;0.90;;;;;;;;;;5061919;28;20206;-82
2022/06/08 15:01:23;;;;;;;2.33;0.85;;;;;;;;;;5058264;28;20241;-82
2022/06/08 15:03:51;;;;;;;1.33;0.98;;;;;;;;;;5062077;28;20720;-82
2022/06/08 15:06:19;;;;;;;2.55;1.00;;;;;;;;;;5057712;28;20743;-84
2022/06/08 15:08:47;;;;;;;4.35;1.17;;;;;;;;;;5055003;28;20229;-83
2022/06/08 15:14:06;;;;;;;1.90;1.05;;;;;;;;;;5051917;28;20284;-84
2022/06/08 15:16:33;;;;;;;0.70;0.70;;;;;;;;;;5053983;28;20230;-85
2022/06/08 15:19:00;;;;;;;1.58;0.95;;;;;;;;;;5054577;28;20220;-84
2022/06/08 15:21:27;;;;;;;0.85;0.70;;;;;;;;;;5054645;28;20222;-85
2022/06/08 15:23:54;;;;;;;1.73;1.25;;;;;;;;;;5042902;28;20229;-84
2022/06/08 15:26:23;;;;;;;1.63;0.82;;;;;;;;;;5055419;28;20230;-84
2022/06/08 15:28:50;;;;;;;0.80;0.80;;;;;;;;;;5064476;28;20213;-84